Accueil
METAR-TAF:

METAR-TAF

Aéroports :

Prato Nevoso, Italie

Monte Malanotte

latitude: 44-15N, longitude: 007-48E, altitude: 1741 m

Observation

Le bulletin a été fait il y a 58 minutes, à 09:55 UTC
Vent 4 kt de est
Température 22°C
Humidité 60%
Pression 1002 hPa
Visibilité 10 km ou plus
Quelques nuages à une hauteur de 3000 ft

METAR: LIMY 290955Z 08004KT 9999 FEW030 22/14 Q1002 RMK FEW VAL NIL VIS MIN 9999

Heure: 12:53 (10:53 UTC)


TAF: absent

Observations et prévisions météorologiques de plus de 4000 aéroports (messages METAR et TAF).

Les stations disponibles sont représentées par des disques jaunes et rouges sur la carte.

Passer la souris dessus pour voir le nom de la station.

Cliquer dessus pour voir les observations et prévisions météorologiques.

Pour changer de carte: cliquez sur les boutons verts avec une croix noire pour zoomer, sur le bouton vert avec un tiret pour effectuer un zoom arrière, ou sur les flèches vertes pour les cartes adjacentes.


METAR-TAF: